createdAt,value
2023-02-03T00:00:13.965Z,10.40
2023-02-03T00:02:43.769Z,10.43
2023-02-03T00:05:12.021Z,11.25
2023-02-03T00:07:41.567Z,9.00
2023-02-03T00:10:10.787Z,8.95
2023-02-03T00:12:39.073Z,10.13
2023-02-03T00:15:08.181Z,11.10
2023-02-03T00:17:36.420Z,11.77
2023-02-03T00:20:06.904Z,10.38
2023-02-03T00:22:35.208Z,10.88
2023-02-03T00:25:03.644Z,10.38
2023-02-03T00:27:32.079Z,10.95
2023-02-03T00:30:00.404Z,10.35
2023-02-03T00:32:28.764Z,9.73
2023-02-03T00:34:57.168Z,9.60
2023-02-03T00:37:26.857Z,8.65
2023-02-03T00:39:55.211Z,8.10
2023-02-03T00:42:23.489Z,8.90
2023-02-03T00:44:51.760Z,8.63
2023-02-03T00:47:19.988Z,8.93
2023-02-03T00:49:48.351Z,9.40
2023-02-03T00:52:16.708Z,8.98
2023-02-03T00:54:46.435Z,8.30
2023-02-03T00:57:14.769Z,7.35
2023-02-03T00:59:43.104Z,7.38
2023-02-03T01:02:11.424Z,7.78
2023-02-03T01:04:39.764Z,7.13
2023-02-03T01:07:08.068Z,7.30
2023-02-03T01:09:37.196Z,7.43
2023-02-03T01:12:07.765Z,7.55
2023-02-03T01:14:36.579Z,8.02
2023-02-03T01:17:04.999Z,6.95
2023-02-03T01:19:33.421Z,7.32
2023-02-03T01:22:02.360Z,7.32
2023-02-03T01:24:31.663Z,7.50
2023-02-03T01:26:59.985Z,7.30
2023-02-03T01:29:29.810Z,7.20
2023-02-03T01:31:58.315Z,6.25
2023-02-03T01:34:26.780Z,5.80
2023-02-03T01:36:55.085Z,7.03
2023-02-03T01:39:23.359Z,5.30
2023-02-03T01:41:51.664Z,5.38
2023-02-03T01:44:47.793Z,5.10
2023-02-03T01:47:22.469Z,4.80
2023-02-03T01:49:56.065Z,5.20
2023-02-03T01:52:24.896Z,6.70
2023-02-03T01:54:56.629Z,5.60
2023-02-03T01:57:28.600Z,5.63
2023-02-03T02:00:00.255Z,5.68
2023-02-03T02:02:28.996Z,5.93
2023-02-03T02:05:02.972Z,5.50
2023-02-03T02:07:32.571Z,5.72
2023-02-03T02:10:01.584Z,6.30
2023-02-03T02:12:29.824Z,5.57
2023-02-03T02:15:00.095Z,6.10
2023-02-03T02:17:41.475Z,6.07
2023-02-03T02:20:39.564Z,6.65
2023-02-03T02:23:37.895Z,7.10
2023-02-03T02:26:34.378Z,6.95
2023-02-03T02:29:36.628Z,7.70
2023-02-03T02:32:19.739Z,8.00
2023-02-03T02:34:57.803Z,8.00
2023-02-03T02:37:34.115Z,7.78
2023-02-03T02:40:14.745Z,7.47
2023-02-03T02:42:51.887Z,8.68
2023-02-03T02:45:31.730Z,8.05
2023-02-03T02:48:08.119Z,7.63
2023-02-03T02:50:42.577Z,7.25
2023-02-03T02:53:12.710Z,6.72
2023-02-03T02:55:44.276Z,6.68
2023-02-03T02:58:15.976Z,6.70
2023-02-03T03:00:45.683Z,6.75
2023-02-03T03:03:20.798Z,6.43
2023-02-03T03:05:54.144Z,5.35
2023-02-03T03:08:29.400Z,6.25
2023-02-03T03:10:59.710Z,5.10
2023-02-03T03:13:33.794Z,5.43
2023-02-03T03:16:07.706Z,4.60
2023-02-03T03:18:43.225Z,4.88
2023-02-03T03:21:15.527Z,3.28
2023-02-03T03:23:47.936Z,3.35
2023-02-03T03:26:19.228Z,3.17
2023-02-03T03:28:50.446Z,2.80
2023-02-03T03:31:20.242Z,3.00
2023-02-03T03:33:50.634Z,2.83
2023-02-03T03:36:27.135Z,2.30
2023-02-03T03:39:02.884Z,2.10
2023-02-03T03:41:41.932Z,1.67
2023-02-03T03:44:16.411Z,2.28
2023-02-03T03:46:50.116Z,2.08
2023-02-03T03:49:21.180Z,2.22
2023-02-03T03:51:53.124Z,1.90
2023-02-03T03:54:24.633Z,1.63
2023-02-03T03:56:59.306Z,1.52
2023-02-03T03:59:32.122Z,1.50
2023-02-03T04:02:04.742Z,1.30
2023-02-03T04:04:36.770Z,1.20
2023-02-03T04:07:05.034Z,0.90
2023-02-03T04:09:36.633Z,1.00
2023-02-03T04:12:06.373Z,1.00
2023-02-03T04:14:38.782Z,0.70
2023-02-03T04:17:07.247Z,0.80
2023-02-03T04:19:36.930Z,0.85
2023-02-03T04:22:05.252Z,0.80
2023-02-03T04:24:33.533Z,0.68
2023-02-03T04:27:03.194Z,0.70
2023-02-03T04:29:33.137Z,0.88
2023-02-03T04:32:02.390Z,0.88
2023-02-03T04:34:30.739Z,0.82
2023-02-03T04:37:00.353Z,1.05
2023-02-03T04:39:28.634Z,0.90
2023-02-03T04:41:57.133Z,0.95
2023-02-03T04:44:25.415Z,0.90
2023-02-03T04:46:53.683Z,0.82
2023-02-03T04:49:22.255Z,0.90
2023-02-03T04:51:50.513Z,0.80
2023-02-03T04:54:20.244Z,0.80
2023-02-03T04:56:48.476Z,1.25
2023-02-03T04:59:16.715Z,1.00
2023-02-03T05:01:45.061Z,0.95
2023-02-03T05:04:13.380Z,1.58
2023-02-03T05:06:41.686Z,2.17
2023-02-03T05:09:09.945Z,3.75
2023-02-03T05:11:39.737Z,6.22
2023-02-03T05:14:08.247Z,13.73
2023-02-03T05:16:36.559Z,7.43
2023-02-03T05:19:05.055Z,5.28
2023-02-03T05:21:33.420Z,4.70
2023-02-03T05:24:03.299Z,3.25
2023-02-03T05:26:31.642Z,3.22
2023-02-03T05:29:01.463Z,4.25
2023-02-03T05:31:29.849Z,4.63
2023-02-03T05:33:58.162Z,4.85
2023-02-03T05:36:26.425Z,3.90
2023-02-03T05:38:54.695Z,3.63
2023-02-03T05:41:40.463Z,3.10
2023-02-03T05:44:10.264Z,3.40
2023-02-03T05:46:38.608Z,3.83
2023-02-03T05:49:07.008Z,4.15
2023-02-03T05:51:35.378Z,3.83
2023-02-03T05:54:03.729Z,4.55
2023-02-03T05:56:32.032Z,5.82
2023-02-03T05:59:00.431Z,5.50
2023-02-03T06:01:32.120Z,6.00
2023-02-03T06:04:01.119Z,6.55
2023-02-03T06:06:33.893Z,7.30
2023-02-03T06:09:02.747Z,5.90
2023-02-03T06:11:31.412Z,7.07
2023-02-03T06:13:59.847Z,7.47
2023-02-03T06:16:31.596Z,7.20
2023-02-03T06:19:02.179Z,6.43
2023-02-03T06:21:30.892Z,7.45
2023-02-03T06:23:59.144Z,4.93
2023-02-03T06:26:27.501Z,6.78
2023-02-03T06:28:56.032Z,7.32
2023-02-03T06:31:24.395Z,6.38
2023-02-03T06:33:52.719Z,5.93
2023-02-03T06:36:22.456Z,6.22
2023-02-03T06:38:51.194Z,6.43
2023-02-03T06:41:19.553Z,6.80
2023-02-03T06:43:47.836Z,6.68
2023-02-03T06:46:16.241Z,7.75
2023-02-03T06:48:44.456Z,7.57
2023-02-03T06:51:13.128Z,8.35
2023-02-03T06:53:42.916Z,7.85
2023-02-03T06:56:11.186Z,8.13
2023-02-03T06:58:39.432Z,6.45
2023-02-03T07:01:07.689Z,5.18
2023-02-03T07:03:36.042Z,11.38
2023-02-03T07:06:04.472Z,9.93
2023-02-03T07:08:32.690Z,8.45
2023-02-03T07:11:02.445Z,8.70
2023-02-03T07:13:30.860Z,8.10
2023-02-03T07:15:59.153Z,9.80
2023-02-03T07:21:16.635Z,9.32
2023-02-03T07:23:44.985Z,9.52
2023-02-03T07:26:14.655Z,8.95
2023-02-03T07:28:43.126Z,9.85
2023-02-03T07:31:11.586Z,9.20
2023-02-03T07:33:40.148Z,8.55
2023-02-03T07:36:09.760Z,9.45
2023-02-03T07:38:39.118Z,9.85
2023-02-03T07:41:07.885Z,8.65
2023-02-03T07:43:38.461Z,10.00
2023-02-03T07:46:07.040Z,7.95
2023-02-03T07:48:35.427Z,8.48
2023-02-03T07:51:03.786Z,8.23
2023-02-03T07:53:32.415Z,8.10
2023-02-03T07:56:02.312Z,7.43
2023-02-03T07:58:30.850Z,7.90
2023-02-03T08:01:01.063Z,8.27
2023-02-03T08:03:29.963Z,8.90
2023-02-03T08:05:58.253Z,8.05
2023-02-03T08:08:26.569Z,7.85
2023-02-03T08:10:57.235Z,7.85
2023-02-03T08:13:25.537Z,8.30
2023-02-03T08:15:54.043Z,8.80
2023-02-03T08:18:24.008Z,7.85
2023-02-03T08:20:52.469Z,8.23
2023-02-03T08:23:20.766Z,8.13
2023-02-03T08:25:52.970Z,7.75
2023-02-03T08:28:21.828Z,7.38
2023-02-03T08:30:50.246Z,6.90
2023-02-03T08:33:18.572Z,7.53
2023-02-03T08:35:50.632Z,6.68
2023-02-03T08:38:19.553Z,5.40
2023-02-03T08:40:48.109Z,6.05
2023-02-03T08:43:16.316Z,4.90
2023-02-03T08:45:44.743Z,5.47
2023-02-03T08:48:13.061Z,4.95
2023-02-03T08:50:43.001Z,4.28
2023-02-03T08:53:12.768Z,4.30
2023-02-03T08:55:41.381Z,3.90
2023-02-03T08:58:09.683Z,5.03
2023-02-03T09:00:38.023Z,3.20
2023-02-03T09:03:06.327Z,3.92
2023-02-03T09:05:35.483Z,3.70
2023-02-03T09:08:03.834Z,4.03
2023-02-03T09:10:33.615Z,4.32
2023-02-03T09:13:02.409Z,4.45
2023-02-03T09:15:30.978Z,3.03
2023-02-03T09:17:59.308Z,3.45
2023-02-03T09:20:28.086Z,3.03
2023-02-03T09:22:59.613Z,3.15
2023-02-03T09:25:28.026Z,2.42
2023-02-03T09:27:57.916Z,3.20
2023-02-03T09:30:27.414Z,2.55
2023-02-03T09:32:56.728Z,2.70
2023-02-03T09:35:27.013Z,3.03
2023-02-03T09:37:55.580Z,2.15
2023-02-03T09:40:29.380Z,2.83
2023-02-03T09:43:13.612Z,2.30
2023-02-03T09:45:42.045Z,1.83
2023-02-03T09:48:15.943Z,2.47
2023-02-03T09:50:45.665Z,2.42
2023-02-03T09:53:24.781Z,1.90
2023-02-03T09:55:53.245Z,2.15
2023-02-03T09:58:23.506Z,2.75
2023-02-03T10:00:54.091Z,2.90
2023-02-03T10:03:31.831Z,3.13
2023-02-03T10:06:13.312Z,3.20
2023-02-03T10:09:01.697Z,2.70
2023-02-03T10:11:42.848Z,2.45
2023-02-03T10:14:25.017Z,2.80
2023-02-03T10:17:07.941Z,2.25
2023-02-03T10:19:43.260Z,3.03
2023-02-03T10:22:16.536Z,2.78
2023-02-03T10:24:48.700Z,2.35
2023-02-03T10:27:21.653Z,2.30
2023-02-03T10:29:57.409Z,3.28
2023-02-03T10:32:27.718Z,3.13
2023-02-03T10:34:57.238Z,3.30
2023-02-03T10:37:30.895Z,2.75
2023-02-03T10:40:02.580Z,2.75
2023-02-03T10:42:52.400Z,2.85
2023-02-03T10:45:22.774Z,2.22
2023-02-03T10:47:56.900Z,2.28
2023-02-03T10:50:31.880Z,2.50
2023-02-03T10:53:23.452Z,1.90
2023-02-03T10:55:53.958Z,2.72
2023-02-03T10:58:27.781Z,2.42
2023-02-03T11:01:08.069Z,4.68
2023-02-03T11:03:36.791Z,2.08
2023-02-03T11:06:10.759Z,2.10
2023-02-03T11:08:40.996Z,2.08
2023-02-03T11:11:11.010Z,2.30
2023-02-03T11:13:45.498Z,3.08
2023-02-03T11:16:17.821Z,2.50
2023-02-03T11:18:52.819Z,3.25
2023-02-03T11:21:23.175Z,1.92
2023-02-03T11:23:56.128Z,1.63
2023-02-03T11:26:28.502Z,2.10
2023-02-03T11:29:00.584Z,1.80
2023-02-03T11:31:32.846Z,1.58
2023-02-03T11:34:04.504Z,1.50
2023-02-03T11:36:34.971Z,2.10
2023-02-03T11:39:22.686Z,1.50
2023-02-03T11:41:51.554Z,1.77
2023-02-03T11:44:22.985Z,1.45
2023-02-03T11:46:57.572Z,1.45
2023-02-03T11:50:08.850Z,1.50
2023-02-03T11:53:02.226Z,1.50
2023-02-03T11:55:55.385Z,1.67
2023-02-03T11:58:56.958Z,1.52
2023-02-03T12:01:45.138Z,2.10
2023-02-03T12:04:45.552Z,1.75
2023-02-03T12:07:43.807Z,1.48
2023-02-03T12:10:30.549Z,1.90
2023-02-03T12:13:04.113Z,1.48
2023-02-03T12:15:53.505Z,1.88
2023-02-03T12:18:46.356Z,2.00
2023-02-03T12:21:36.512Z,1.80
2023-02-03T12:24:15.584Z,1.77
2023-02-03T12:26:52.048Z,1.70
2023-02-03T12:29:25.410Z,1.75
2023-02-03T12:32:02.281Z,2.00
2023-02-03T12:34:35.293Z,1.98
2023-02-03T12:37:08.062Z,1.60
2023-02-03T12:39:41.438Z,1.50
2023-02-03T12:42:19.771Z,1.60
2023-02-03T12:44:53.752Z,2.00
2023-02-03T12:47:30.036Z,1.65
2023-02-03T12:50:05.066Z,1.67
2023-02-03T12:52:39.917Z,1.20
2023-02-03T12:55:20.300Z,1.30
2023-02-03T12:57:54.922Z,1.58
2023-02-03T13:00:34.732Z,1.50
2023-02-03T13:03:12.547Z,2.08
2023-02-03T13:05:46.320Z,2.00
2023-02-03T13:08:24.963Z,1.75
2023-02-03T13:10:58.857Z,1.38
2023-02-03T13:13:35.291Z,1.80
2023-02-03T13:16:07.403Z,2.15
2023-02-03T13:18:39.081Z,1.75
2023-02-03T13:21:07.342Z,1.00
2023-02-03T13:23:37.110Z,1.50
2023-02-03T13:26:30.849Z,1.85
2023-02-03T13:29:20.535Z,2.85
2023-02-03T13:32:00.961Z,2.42
2023-02-03T13:34:56.450Z,2.70
2023-02-03T13:37:58.907Z,4.43
2023-02-03T13:40:42.581Z,2.78
2023-02-03T13:43:23.071Z,2.15
2023-02-03T13:46:00.991Z,2.60
2023-02-03T13:48:31.672Z,2.83
2023-02-03T13:51:07.643Z,2.60
2023-02-03T13:53:41.857Z,2.70
2023-02-03T13:56:22.338Z,4.00
2023-02-03T13:59:12.588Z,1.88
2023-02-03T14:01:41.988Z,2.90
2023-02-03T14:04:31.812Z,2.67
2023-02-03T14:07:04.932Z,3.30
2023-02-03T14:09:39.277Z,2.88
2023-02-03T14:12:34.442Z,2.35
2023-02-03T14:15:24.154Z,2.45
2023-02-03T14:18:07.280Z,2.65
2023-02-03T14:21:10.767Z,2.95
2023-02-03T14:23:49.897Z,2.47
2023-02-03T14:26:29.777Z,2.65
2023-02-03T14:28:58.598Z,2.20
2023-02-03T14:31:28.562Z,2.10
2023-02-03T14:34:09.419Z,2.45
2023-02-03T14:36:41.996Z,1.95
2023-02-03T14:39:43.686Z,2.13
2023-02-03T14:42:24.606Z,2.67
2023-02-03T14:45:08.388Z,2.55
2023-02-03T14:47:50.779Z,2.30
2023-02-03T14:50:33.765Z,2.38
2023-02-03T14:53:32.619Z,1.85
2023-02-03T14:56:14.791Z,2.45
2023-02-03T14:58:47.789Z,2.40
2023-02-03T15:01:29.063Z,2.05
2023-02-03T15:04:25.750Z,2.30
2023-02-03T15:06:54.593Z,2.47
2023-02-03T15:09:28.757Z,2.15
2023-02-03T15:11:57.274Z,2.40
2023-02-03T15:14:30.247Z,2.33
2023-02-03T15:17:01.073Z,2.70
2023-02-03T15:19:33.384Z,2.22
2023-02-03T15:22:18.917Z,2.53
2023-02-03T15:24:47.241Z,3.60
2023-02-03T15:27:23.413Z,5.45
2023-02-03T15:29:53.177Z,3.25
2023-02-03T15:32:29.032Z,9.15
2023-02-03T15:35:02.188Z,5.55
2023-02-03T15:37:35.689Z,3.63
2023-02-03T15:40:09.016Z,3.22
2023-02-03T15:42:40.800Z,4.78
2023-02-03T15:45:21.590Z,7.65
2023-02-03T15:47:58.533Z,4.15
2023-02-03T15:50:32.042Z,7.03
2023-02-03T15:53:06.217Z,2.20
2023-02-03T15:55:38.070Z,4.05
2023-02-03T15:58:10.370Z,4.95
2023-02-03T16:00:52.898Z,4.95
2023-02-03T16:03:38.112Z,2.45
2023-02-03T16:06:13.747Z,3.63
2023-02-03T16:08:46.590Z,2.25
2023-02-03T16:11:29.913Z,2.70
2023-02-03T16:14:00.859Z,1.90
2023-02-03T16:16:35.221Z,2.85
2023-02-03T16:19:06.271Z,1.98
2023-02-03T16:21:37.130Z,2.20
2023-02-03T16:24:06.572Z,3.10
2023-02-03T16:26:40.951Z,2.30
2023-02-03T16:29:32.150Z,3.28
2023-02-03T16:32:19.711Z,2.53
2023-02-03T16:35:05.519Z,3.55
2023-02-03T16:37:59.477Z,2.65
2023-02-03T16:40:48.645Z,2.55
2023-02-03T16:43:35.357Z,2.75
2023-02-03T16:46:29.497Z,3.10
2023-02-03T16:49:16.647Z,2.90
2023-02-03T16:51:44.947Z,2.60
2023-02-03T16:54:15.139Z,3.63
2023-02-03T16:56:43.501Z,2.47
2023-02-03T16:59:11.786Z,3.08
2023-02-03T17:01:40.352Z,2.67
2023-02-03T17:04:11.135Z,2.78
2023-02-03T17:06:39.798Z,2.72
2023-02-03T17:09:11.089Z,2.63
2023-02-03T17:11:40.313Z,4.45
2023-02-03T17:14:17.425Z,2.47
2023-02-03T17:16:48.844Z,3.72
2023-02-03T17:19:18.497Z,2.85
2023-02-03T17:21:51.568Z,2.50
2023-02-03T17:24:19.955Z,2.90
2023-02-03T17:26:49.012Z,2.50
2023-02-03T17:29:17.255Z,2.30
2023-02-03T17:31:45.472Z,3.08
2023-02-03T17:34:13.765Z,2.40
2023-02-03T17:36:43.376Z,2.60
2023-02-03T17:55:33.671Z,2.22
2023-02-03T17:58:02.237Z,2.35
2023-02-03T18:00:30.812Z,2.90
2023-02-03T18:03:02.043Z,3.17
2023-02-03T18:05:30.410Z,2.70
2023-02-03T18:08:03.083Z,1.90
2023-02-03T18:10:39.155Z,2.35
2023-02-03T18:13:10.296Z,2.05
2023-02-03T18:15:39.632Z,3.60
2023-02-03T18:18:08.078Z,2.78
2023-02-03T18:20:38.935Z,2.60
2023-02-03T18:23:07.218Z,2.63
2023-02-03T18:25:41.143Z,3.22
2023-02-03T18:28:12.499Z,2.20
2023-02-03T18:30:41.107Z,3.05
2023-02-03T18:33:09.425Z,2.38
2023-02-03T18:35:37.773Z,2.13
2023-02-03T18:38:08.829Z,2.50
2023-02-03T18:40:42.238Z,2.78
2023-02-03T18:43:10.534Z,2.75
2023-02-03T18:45:39.937Z,2.80
2023-02-03T18:48:08.281Z,3.58
2023-02-03T18:50:39.421Z,2.55
2023-02-03T18:53:11.150Z,2.67
2023-02-03T18:55:43.881Z,3.13
2023-02-03T18:58:14.149Z,2.40
2023-02-03T19:00:42.414Z,4.03
2023-02-03T19:03:13.720Z,2.83
2023-02-03T19:05:44.965Z,2.22
2023-02-03T19:08:16.347Z,2.70
2023-02-03T19:10:48.521Z,3.70
2023-02-03T19:13:16.760Z,2.35
2023-02-03T19:15:45.047Z,2.17
2023-02-03T19:18:13.750Z,3.42
2023-02-03T19:20:52.711Z,2.95
2023-02-03T19:23:24.057Z,2.33
2023-02-03T19:25:54.264Z,2.97
2023-02-03T19:28:30.394Z,2.85
2023-02-03T19:31:08.115Z,3.33
2023-02-03T19:33:36.942Z,2.33
2023-02-03T19:36:06.052Z,1.83
2023-02-03T19:38:34.527Z,2.90
2023-02-03T19:41:04.616Z,2.63
2023-02-03T19:43:35.969Z,2.33
2023-02-03T19:46:04.411Z,1.40
2023-02-03T19:48:32.786Z,1.20
2023-02-03T19:51:06.284Z,1.65
2023-02-03T19:53:35.182Z,2.25
2023-02-03T19:56:11.697Z,1.90
2023-02-03T19:58:40.058Z,2.42
2023-02-03T20:01:10.219Z,1.77
2023-02-03T20:03:38.464Z,2.50
2023-02-03T20:06:07.209Z,2.10
2023-02-03T20:08:35.431Z,1.60
2023-02-03T20:11:05.339Z,2.20
2023-02-03T20:13:33.646Z,2.33
2023-02-03T20:16:01.961Z,2.20
2023-02-03T20:18:33.239Z,2.55
2023-02-03T20:21:02.284Z,2.22
2023-02-03T20:23:33.817Z,2.55
2023-02-03T20:26:02.398Z,2.55
2023-02-03T20:28:32.224Z,2.70
2023-02-03T20:31:02.226Z,2.50
2023-02-03T20:33:31.863Z,2.20
2023-02-03T20:36:00.088Z,2.17
2023-02-03T20:38:28.512Z,3.95
2023-02-03T20:40:57.363Z,3.25
2023-02-03T20:43:27.788Z,2.08
2023-02-03T20:45:57.526Z,2.35
2023-02-03T20:48:26.878Z,3.33
2023-02-03T20:50:55.164Z,2.60
2023-02-03T20:53:24.720Z,2.40
2023-02-03T20:55:53.388Z,2.00
2023-02-03T20:58:24.880Z,2.92
2023-02-03T21:00:53.648Z,2.03
2023-02-03T21:03:40.531Z,2.42
2023-02-03T21:06:15.853Z,3.22
2023-02-03T21:08:45.168Z,2.15
2023-02-03T21:11:15.619Z,1.98
2023-02-03T21:13:47.828Z,1.17
2023-02-03T21:16:24.907Z,1.83
2023-02-03T21:18:56.662Z,1.90
2023-02-03T21:21:30.356Z,2.22
2023-02-03T21:24:01.197Z,2.63
2023-02-03T21:26:31.228Z,1.30
2023-02-03T21:29:00.747Z,1.90
2023-02-03T21:31:31.367Z,2.28
2023-02-03T21:34:02.678Z,1.98
2023-02-03T21:36:35.305Z,1.30
2023-02-03T21:39:10.640Z,1.70
2023-02-03T21:41:38.896Z,1.38
2023-02-03T21:44:28.063Z,1.90
2023-02-03T21:46:56.472Z,2.28
2023-02-03T21:49:26.124Z,1.20
2023-02-03T21:51:54.356Z,1.88
2023-02-03T21:54:28.263Z,1.77
2023-02-03T21:56:56.974Z,1.35
2023-02-03T21:59:35.456Z,1.95
2023-02-03T22:02:03.816Z,1.15
2023-02-03T22:04:33.500Z,1.65
2023-02-03T22:07:01.745Z,2.03
2023-02-03T22:09:30.070Z,1.50
2023-02-03T22:11:59.231Z,1.33
2023-02-03T22:14:28.772Z,1.60
2023-02-03T22:16:57.087Z,1.20
2023-02-03T22:19:25.771Z,1.40
2023-02-03T22:21:55.800Z,1.38
2023-02-03T22:24:24.122Z,1.10
2023-02-03T22:26:52.833Z,1.30
2023-02-03T22:29:23.886Z,1.40
2023-02-03T22:31:52.291Z,1.25
2023-02-03T22:34:21.972Z,1.90
2023-02-03T22:36:50.197Z,1.02
2023-02-03T22:39:19.962Z,1.50
2023-02-03T22:41:48.200Z,1.50
2023-02-03T22:44:17.875Z,1.05
2023-02-03T22:46:46.128Z,1.15
2023-02-03T22:49:14.384Z,1.02
2023-02-03T22:51:42.636Z,1.35
2023-02-03T22:54:10.933Z,1.25
2023-02-03T22:56:40.640Z,0.90
2023-02-03T22:59:08.873Z,1.02
2023-02-03T23:01:37.068Z,0.98
2023-02-03T23:04:05.373Z,0.85
2023-02-03T23:06:33.614Z,0.98
2023-02-03T23:09:02.188Z,1.65
2023-02-03T23:11:30.433Z,1.00
2023-02-03T23:14:00.152Z,0.88
2023-02-03T23:16:28.673Z,0.70
2023-02-03T23:18:56.938Z,1.08
2023-02-03T23:21:25.168Z,0.90
2023-02-03T23:23:53.366Z,1.00
2023-02-03T23:26:21.698Z,0.95
2023-02-03T23:28:49.935Z,0.80
2023-02-03T23:31:19.646Z,0.70
2023-02-03T23:34:01.687Z,0.90
2023-02-03T23:36:29.949Z,0.63
2023-02-03T23:38:58.189Z,0.88
2023-02-03T23:41:26.501Z,0.88
2023-02-03T23:43:54.724Z,0.73
2023-02-03T23:46:24.513Z,0.98
2023-02-03T23:48:52.762Z,0.77
2023-02-03T23:51:21.016Z,1.02
2023-02-03T23:53:49.253Z,0.70
2023-02-03T23:56:17.529Z,0.70
2023-02-03T23:58:45.920Z,0.70
